KTOA/TOA METAR and TAF weather

Enter ICAO airport designator
Station Type Date Time Source
KTOA METAR 2020/02/20 16:47 UTC NOAA

KTOA 201647Z 00000KT 6SM BR SKC 17/09 A3013


Station Type Date Time Source
KTOA Decoded METAR 2020/02/20 16:47 UTC NOAA

Torrance, Zamperini Field Airport, CA, United States (KTOA) 33-48N 118-20W
Feb 20, 2020 - 11:47 AM EST / 2020.02.20 1647 UTC
Wind: Calm:0
Visibility: 6 mile(s):0
Sky conditions: clear
Weather: mist
Temperature: 62 F (17 C)
Dew Point: 48 F (9 C)
Relative Humidity: 59%
Pressure (altimeter): 30.13 in. Hg (1020 hPa)
ob: KTOA 201647Z 00000KT 6SM BR SKC 17/09 A3013
cycle: 17

Station Type Date Time Source
KTOA TAF UTC NOAA

Error!

Example: see airport list